Amambai, Brazil
Current Conditions -  °F | °C
As of 3:00 PM on Saturday 25 Oct 2014 (Local Time) from SGES Reporting Station
Broken Clouds Broken Clouds  
Wind Chill: 93°   Ceiling: 2700
Heat Index: 94°   Visibility: 6mi
Dew Point: 63°   Wind: 9mph
Humidity: 36%   Direction: 70°ENE
Pressure: 29.83"   Gusts: NA
Location:  23.1°S, 55.23°W
Report Text: SGES 251800Z 07008KT 360V150 9999 BKN027 34/17 Q1010
Loading
Personal Weather Stations






























Interactive Weather Map
Tropical Storm Tracking
New forecast layout! Learn more

10-Day Weather Forecast

Advertisements
Track Severe Weather on mobile